Time;durP1;ratioP1;P1;durP2;ratioP2;P2;SDS_P1;SDS_P2;PMS_P1;PMS_P2;Temp;Humidity;BMP_temperature;BMP_pressure;BME280_temperature;BME280_humidity;BME280_pressure;Samples;Min_cycle;Max_cycle;Signal;HPM_P1;HPM_P2
2023/08/24 00:01:12;;;;;;;8.23;4.70;;;;;;;16.67;89.61;101697.78;5030801;28;20044;-67
2023/08/24 00:03:38;;;;;;;7.85;4.68;;;;;;;16.68;89.30;101704.16;5030282;28;20040;-67
2023/08/24 00:06:04;;;;;;;7.18;4.75;;;;;;;16.66;89.43;101696.06;5028961;28;20025;-71
2023/08/24 00:08:29;;;;;;;7.30;4.97;;;;;;;16.63;90.27;101699.06;5030963;28;20091;-67
2023/08/24 00:10:55;;;;;;;7.47;5.53;;;;;;;16.63;90.09;101700.94;5027308;28;20025;-67
2023/08/24 00:13:20;;;;;;;8.82;4.90;;;;;;;16.59;89.49;101709.41;5014220;28;20036;-67
2023/08/24 00:15:46;;;;;;;6.40;4.93;;;;;;;16.59;89.91;101708.53;5010268;28;20065;-68
2023/08/24 00:18:11;;;;;;;8.43;4.75;;;;;;;16.57;89.73;101713.31;5011319;28;20048;-66
2023/08/24 00:20:37;;;;;;;6.25;5.00;;;;;;;16.54;89.50;101708.94;5009619;28;20037;-67
2023/08/24 00:23:03;;;;;;;7.13;4.88;;;;;;;16.51;89.28;101703.72;5010936;28;20050;-67
2023/08/24 00:25:29;;;;;;;8.23;5.32;;;;;;;16.44;90.93;101693.38;5010832;28;20141;-68
2023/08/24 00:27:54;;;;;;;8.68;5.85;;;;;;;16.38;92.70;101677.41;5028430;28;20041;-69
2023/08/24 00:30:20;;;;;;;10.25;6.45;;;;;;;16.35;91.56;101673.03;5021591;28;20498;-68
2023/08/24 00:32:45;;;;;;;8.60;5.22;;;;;;;16.35;91.59;101677.66;5010334;28;20032;-72
2023/08/24 00:35:11;;;;;;;7.72;4.88;;;;;;;16.35;91.10;101689.50;5026357;28;20044;-66
2023/08/24 00:37:37;;;;;;;11.57;5.25;;;;;;;16.35;91.21;101683.16;5023593;28;20527;-67
2023/08/24 00:40:08;;;;;;;10.02;5.18;;;;;;;16.36;90.95;101690.38;5027893;28;20124;-66
2023/08/24 00:42:38;;;;;;;6.50;5.00;;;;;;;16.31;91.27;101683.38;5015859;28;20490;-67
2023/08/24 00:45:10;;;;;;;11.05;5.07;;;;;;;16.26;91.38;101685.66;5009629;28;20049;-69
2023/08/24 00:47:38;;;;;;;9.43;5.80;;;;;;;16.24;91.54;101681.31;5009088;28;20670;-68
2023/08/24 00:50:06;;;;;;;8.35;5.90;;;;;;;16.23;93.28;101677.69;5026601;28;20033;-68
2023/08/24 00:52:32;;;;;;;9.60;5.63;;;;;;;16.19;94.09;101667.09;5028958;28;20486;-67
2023/08/24 00:54:59;;;;;;;8.50;5.38;;;;;;;16.17;93.50;101671.81;5028734;28;20041;-66
2023/08/24 00:57:27;;;;;;;7.45;5.05;;;;;;;16.17;93.21;101669.06;5019721;28;20033;-67
2023/08/24 00:59:52;;;;;;;6.25;4.72;;;;;;;16.20;92.70;101672.44;5010388;28;20506;-71
2023/08/24 01:02:18;;;;;;;9.13;5.10;;;;;;;16.23;91.79;101676.81;5007318;28;20041;-66
2023/08/24 01:04:46;;;;;;;6.95;5.28;;;;;;;16.23;92.13;101668.56;5010967;28;20406;-68
2023/08/24 01:07:12;;;;;;;8.23;5.40;;;;;;;16.24;93.40;101662.94;5009590;28;20042;-68
2023/08/24 01:09:37;;;;;;;8.93;5.60;;;;;;;16.23;94.55;101663.97;5010517;28;20038;-67
2023/08/24 01:12:12;;;;;;;10.52;5.53;;;;;;;16.26;95.21;101658.19;5019772;28;20397;-68
2023/08/24 01:15:16;;;;;;;8.60;5.60;;;;;;;16.25;94.53;101661.94;5028461;28;20052;-67
2023/08/24 01:17:43;;;;;;;10.63;6.00;;;;;;;16.22;95.36;101662.19;5044717;28;20466;-68
2023/08/24 01:20:10;;;;;;;7.20;5.03;;;;;;;16.26;94.08;101674.66;5029403;28;20091;-68
2023/08/24 01:23:03;;;;;;;7.15;5.28;;;;;;;16.30;93.41;101676.16;5028093;28;20426;-66
2023/08/24 01:25:34;;;;;;;8.13;4.93;;;;;;;16.28;92.93;101666.31;5028716;28;20045;-68
2023/08/24 01:28:01;;;;;;;7.22;5.60;;;;;;;16.21;95.26;101654.09;5015019;28;20435;-67
2023/08/24 01:30:30;;;;;;;10.18;6.45;;;;;;;16.22;96.19;101655.81;5008675;28;20049;-68
2023/08/24 01:32:56;;;;;;;7.82;5.60;;;;;;;16.27;94.93;101657.22;5009137;28;20112;-68
2023/08/24 01:35:21;;;;;;;7.40;5.82;;;;;;;16.33;94.95;101659.44;5009556;28;20124;-68
2023/08/24 01:37:47;;;;;;;7.00;5.15;;;;;;;16.40;94.94;101664.41;5009522;28;20136;-67
2023/08/24 01:40:29;;;;;;;7.65;5.20;;;;;;;16.40;95.20;101662.53;5023900;28;20759;-67
2023/08/24 01:43:03;;;;;;;9.27;5.53;;;;;;;16.45;94.93;101660.25;5022050;28;20033;-68
2023/08/24 01:45:31;;;;;;;10.02;6.25;;;;;;;16.48;95.30;101661.88;5026159;28;20283;-67
2023/08/24 01:47:57;;;;;;;9.07;6.60;;;;;;;16.47;94.88;101651.91;5012598;28;20030;-68
2023/08/24 01:50:23;;;;;;;9.55;6.45;;;;;;;16.50;95.36;101665.38;5029020;28;20154;-68
2023/08/24 01:52:49;;;;;;;13.55;6.60;;;;;;;16.52;95.67;101657.88;5027805;28;20068;-68
2023/08/24 01:55:18;;;;;;;9.90;6.53;;;;;;;16.54;96.16;101650.38;5029662;28;20107;-68
2023/08/24 01:57:44;;;;;;;11.73;6.53;;;;;;;16.58;95.91;101660.09;5026590;28;20022;-68
2023/08/24 02:00:10;;;;;;;8.73;6.68;;;;;;;16.59;95.89;101665.47;5027168;28;20056;-68
2023/08/24 02:02:45;;;;;;;9.60;6.47;;;;;;;16.65;96.69;101668.72;5026848;28;20389;-72
2023/08/24 02:05:11;;;;;;;10.77;6.25;;;;;;;16.66;95.28;101670.47;5028060;28;20041;-67
2023/08/24 02:07:38;;;;;;;11.23;6.50;;;;;;;16.66;95.38;101660.34;5017840;28;20038;-67
2023/08/24 02:10:04;;;;;;;13.30;6.80;;;;;;;16.67;95.99;101661.19;5007759;28;20040;-68
2023/08/24 02:12:29;;;;;;;11.70;6.85;;;;;;;16.68;96.15;101658.31;5022268;28;20481;-69
2023/08/24 02:14:55;;;;;;;12.10;6.97;;;;;;;16.67;98.11;101650.22;5027370;28;20049;-68
2023/08/24 02:17:20;;;;;;;11.00;7.32;;;;;;;16.64;98.36;101636.72;5025667;28;20021;-69
2023/08/24 02:19:46;;;;;;;10.50;6.22;;;;;;;16.66;97.15;101653.97;5028374;28;20060;-71
2023/08/24 02:22:11;;;;;;;12.52;7.25;;;;;;;16.66;97.07;101660.34;5009422;28;20463;-67
2023/08/24 02:24:37;;;;;;;11.23;7.20;;;;;;;16.69;96.69;101653.69;5017828;28;20482;-70
2023/08/24 02:27:02;;;;;;;11.20;7.00;;;;;;;16.70;97.32;101650.84;5025113;28;20077;-67
2023/08/24 02:29:27;;;;;;;10.27;6.90;;;;;;;16.71;96.79;101648.94;5027072;28;20051;-68
2023/08/24 02:31:53;;;;;;;9.93;6.40;;;;;;;16.73;96.85;101652.47;5012183;28;20084;-67
2023/08/24 02:34:19;;;;;;;10.55;7.03;;;;;;;16.76;97.00;101657.69;5011287;28;20021;-68
2023/08/24 02:36:45;;;;;;;9.63;7.18;;;;;;;16.78;97.58;101655.69;5010580;28;20557;-68
2023/08/24 02:39:10;;;;;;;8.68;6.40;;;;;;;16.81;96.92;101652.69;5011107;28;20039;-67
2023/08/24 02:41:36;;;;;;;11.75;7.32;;;;;;;16.82;97.47;101630.56;5012692;28;20132;-67
2023/08/24 02:44:02;;;;;;;10.73;6.57;;;;;;;16.83;97.84;101615.84;5021237;28;20385;-69
2023/08/24 02:46:28;;;;;;;12.00;7.05;;;;;;;16.86;98.79;101608.31;5025696;28;20106;-68
2023/08/24 02:48:53;;;;;;;12.40;7.70;;;;;;;16.86;98.34;101602.81;5016832;28;20029;-68
2023/08/24 02:51:21;;;;;;;9.82;7.00;;;;;;;16.86;98.66;101606.44;5023996;28;20034;-68
2023/08/24 02:53:47;;;;;;;10.60;7.57;;;;;;;16.86;98.42;101600.94;5026495;28;20041;-69
2023/08/24 02:56:12;;;;;;;14.27;8.07;;;;;;;16.89;98.65;101591.56;5012150;28;20041;-69
2023/08/24 02:58:37;;;;;;;10.75;7.05;;;;;;;16.89;98.51;101584.19;5007708;28;20049;-69
2023/08/24 03:01:08;;;;;;;13.63;8.00;;;;;;;16.91;99.27;101570.31;5013606;28;20547;-69
2023/08/24 03:03:36;;;;;;;14.48;9.00;;;;;;;16.90;100.00;101561.19;5025814;28;20029;-70
2023/08/24 03:06:07;;;;;;;13.23;8.35;;;;;;;16.90;100.00;101541.94;5026452;28;20029;-70
2023/08/24 03:08:34;;;;;;;16.55;9.10;;;;;;;16.89;100.00;101501.72;5026474;28;20048;-68
2023/08/24 03:11:01;;;;;;;14.60;9.07;;;;;;;16.88;100.00;101497.25;5024776;28;20030;-68
2023/08/24 03:13:27;;;;;;;19.85;9.65;;;;;;;16.93;100.00;101488.59;5010733;28;20044;-68
2023/08/24 03:15:54;;;;;;;17.48;10.52;;;;;;;16.89;100.00;101485.25;5005650;28;20034;-68
2023/08/24 03:18:21;;;;;;;14.93;10.38;;;;;;;16.94;100.00;101501.31;5005778;28;20417;-68
2023/08/24 03:20:48;;;;;;;18.75;9.80;;;;;;;16.97;100.00;101506.53;4995275;28;20029;-69
2023/08/24 03:23:15;;;;;;;16.85;12.10;;;;;;;16.95;100.00;101489.31;5025882;28;20035;-69
2023/08/24 03:25:42;;;;;;;19.92;10.85;;;;;;;16.97;100.00;101474.44;5024745;28;20029;-69
2023/08/24 03:28:08;;;;;;;18.38;11.48;;;;;;;16.97;100.00;101465.28;5025303;28;20148;-70
2023/08/24 03:30:35;;;;;;;18.02;12.38;;;;;;;16.98;100.00;101456.94;5028959;28;20124;-70
2023/08/24 03:33:02;;;;;;;16.45;11.90;;;;;;;16.97;100.00;101463.44;5033583;28;20021;-69
2023/08/24 03:35:32;;;;;;;17.58;11.85;;;;;;;16.98;100.00;101459.69;5031604;28;20539;-70
2023/08/24 03:37:58;;;;;;;19.02;11.77;;;;;;;17.01;100.00;101459.38;5032852;28;20041;-69
2023/08/24 03:40:25;;;;;;;21.33;11.95;;;;;;;17.05;100.00;101459.97;5031533;28;20021;-69
2023/08/24 03:42:50;;;;;;;18.10;11.60;;;;;;;17.03;100.00;101464.75;5031410;28;20464;-69
2023/08/24 03:45:16;;;;;;;21.20;12.60;;;;;;;17.04;100.00;101459.13;5032061;28;20133;-71
2023/08/24 03:47:41;;;;;;;18.38;12.32;;;;;;;17.00;100.00;101460.41;5031125;28;20715;-70
2023/08/24 03:50:07;;;;;;;17.48;12.13;;;;;;;16.95;100.00;101461.81;5033961;28;20782;-70
2023/08/24 03:52:33;;;;;;;20.48;12.20;;;;;;;16.92;100.00;101462.09;5032749;28;20477;-70
2023/08/24 03:54:58;;;;;;;18.35;11.70;;;;;;;16.92;100.00;101465.69;5031027;28;20053;-71
2023/08/24 03:57:23;;;;;;;20.60;11.35;;;;;;;16.94;100.00;101471.09;5019455;28;20489;-70
2023/08/24 03:59:49;;;;;;;18.30;11.65;;;;;;;16.96;100.00;101469.06;5014116;28;20410;-69
2023/08/24 04:02:15;;;;;;;20.85;14.40;;;;;;;16.91;100.00;101469.47;5011912;28;20037;-70
2023/08/24 04:04:40;;;;;;;17.42;13.45;;;;;;;16.93;100.00;101474.84;5013125;28;20053;-70
2023/08/24 04:07:06;;;;;;;23.35;12.98;;;;;;;16.96;100.00;101480.06;5024510;28;20083;-70
2023/08/24 04:09:31;;;;;;;21.40;13.75;;;;;;;16.99;100.00;101485.28;5032555;28;20044;-69
2023/08/24 04:11:56;;;;;;;24.60;15.48;;;;;;;16.99;100.00;101479.78;5031251;28;20113;-69
2023/08/24 04:14:22;;;;;;;22.27;14.45;;;;;;;16.96;100.00;101480.06;5032302;28;20033;-69
2023/08/24 04:16:48;;;;;;;25.02;13.98;;;;;;;16.94;100.00;101480.19;5031228;28;20056;-70
2023/08/24 04:19:13;;;;;;;21.80;13.68;;;;;;;16.97;100.00;101482.69;5030667;28;20036;-70
2023/08/24 04:21:39;;;;;;;19.70;12.43;;;;;;;16.98;100.00;101484.41;5014150;28;20056;-69
2023/08/24 04:24:04;;;;;;;19.02;12.07;;;;;;;16.99;100.00;101490.78;5014058;28;20029;-70
2023/08/24 04:26:30;;;;;;;17.23;11.38;;;;;;;16.97;100.00;101484.53;5017917;28;20037;-70
2023/08/24 04:28:56;;;;;;;19.58;12.18;;;;;;;16.98;100.00;101484.41;5012709;28;20524;-70
2023/08/24 04:31:21;;;;;;;19.58;13.80;;;;;;;17.00;100.00;101485.13;5013092;28;20073;-69
2023/08/24 04:33:46;;;;;;;17.35;12.15;;;;;;;17.00;100.00;101476.03;5013239;28;20183;-70
2023/08/24 04:36:12;;;;;;;19.20;12.80;;;;;;;17.04;100.00;101474.75;5013194;28;20088;-70
2023/08/24 04:38:37;;;;;;;17.63;11.45;;;;;;;17.03;100.00;101479.38;5015920;28;20107;-70
2023/08/24 04:41:07;;;;;;;24.60;13.38;;;;;;;17.04;100.00;101492.09;5031737;28;20034;-70
2023/08/24 04:43:33;;;;;;;22.33;12.45;;;;;;;17.04;100.00;101491.25;5012672;28;20038;-70
2023/08/24 04:45:58;;;;;;;17.80;12.27;;;;;;;17.02;100.00;101485.88;5027788;28;20041;-69
2023/08/24 04:48:25;;;;;;;20.33;13.15;;;;;;;16.99;100.00;101477.91;5022509;28;20441;-70
2023/08/24 04:50:52;;;;;;;17.02;12.32;;;;;;;16.92;100.00;101479.44;5026862;28;20041;-70
2023/08/24 04:53:18;;;;;;;17.67;12.93;;;;;;;16.90;100.00;101478.72;5027871;28;20492;-70
2023/08/24 04:55:44;;;;;;;18.33;12.48;;;;;;;16.89;100.00;101478.88;5014340;28;20044;-70
2023/08/24 04:58:11;;;;;;;22.48;13.40;;;;;;;16.86;100.00;101471.75;5019804;28;20037;-70
2023/08/24 05:00:37;;;;;;;17.13;12.35;;;;;;;16.83;100.00;101472.91;5029227;28;20095;-69
2023/08/24 05:03:04;;;;;;;16.52;12.20;;;;;;;16.81;100.00;101472.16;5033434;28;20171;-70
2023/08/24 05:05:31;;;;;;;19.48;13.15;;;;;;;16.80;100.00;101480.56;5029818;28;20038;-69
2023/08/24 05:07:57;;;;;;;18.88;12.32;;;;;;;16.77;100.00;101476.19;5012711;28;20385;-69
2023/08/24 05:10:23;;;;;;;20.60;13.07;;;;;;;16.76;100.00;101487.31;5017502;28;20041;-69
2023/08/24 05:12:48;;;;;;;19.27;11.90;;;;;;;16.75;100.00;101485.59;5026264;28;20041;-70
2023/08/24 05:15:13;;;;;;;20.58;12.23;;;;;;;16.74;100.00;101481.06;5030071;28;20494;-70
2023/08/24 05:17:40;;;;;;;21.38;13.68;;;;;;;16.73;100.00;101482.09;5027197;28;20037;-69
2023/08/24 05:20:11;;;;;;;25.25;15.45;;;;;;;16.72;100.00;101475.72;5029817;28;20063;-70
2023/08/24 05:22:38;;;;;;;20.48;14.05;;;;;;;16.72;100.00;101475.72;5032580;28;20034;-70
2023/08/24 05:25:04;;;;;;;18.50;13.40;;;;;;;16.75;100.00;101475.47;5016673;28;20064;-70
2023/08/24 05:27:29;;;;;;;26.58;16.17;;;;;;;16.79;100.00;101467.84;5014567;28;20049;-70
2023/08/24 05:29:55;;;;;;;18.52;14.05;;;;;;;16.79;100.00;101460.44;5009986;28;20046;-71
2023/08/24 05:32:20;;;;;;;18.65;14.02;;;;;;;16.83;100.00;101455.53;5008033;28;20445;-70
2023/08/24 05:34:46;;;;;;;18.60;14.10;;;;;;;16.83;100.00;101463.78;5008319;28;20044;-71
2023/08/24 05:37:11;;;;;;;19.80;12.63;;;;;;;16.85;100.00;101458.16;5010055;28;20038;-70
2023/08/24 05:39:38;;;;;;;18.67;14.10;;;;;;;16.89;100.00;101456.88;5009291;28;20477;-70
2023/08/24 05:42:03;;;;;;;22.08;16.50;;;;;;;16.94;100.00;101458.22;5013681;28;20456;-70
2023/08/24 05:44:29;;;;;;;21.05;15.13;;;;;;;16.97;100.00;101446.03;5027782;28;20037;-70
2023/08/24 05:46:54;;;;;;;23.83;15.80;;;;;;;17.00;100.00;101446.66;5028391;28;20551;-70
2023/08/24 05:49:19;;;;;;;25.15;15.65;;;;;;;17.05;100.00;101438.84;5028191;28;20448;-70
2023/08/24 05:51:45;;;;;;;21.38;15.30;;;;;;;17.09;100.00;101432.06;5026987;28;20057;-70
2023/08/24 05:54:10;;;;;;;22.77;15.07;;;;;;;17.14;100.00;101434.41;5008036;28;20038;-71
2023/08/24 05:56:36;;;;;;;21.23;15.02;;;;;;;17.17;100.00;101431.38;5025466;28;20512;-70
2023/08/24 05:59:01;;;;;;;19.30;14.80;;;;;;;17.22;100.00;101444.72;5044017;28;20067;-70
2023/08/24 06:01:26;;;;;;;21.58;14.52;;;;;;;17.24;100.00;101424.31;5026311;28;20132;-70
2023/08/24 06:03:52;;;;;;;29.50;22.35;;;;;;;17.28;100.00;101417.50;5027024;28;20454;-69
2023/08/24 06:06:17;;;;;;;27.33;19.70;;;;;;;17.31;100.00;101408.13;5027531;28;20021;-70
2023/08/24 06:08:43;;;;;;;26.35;18.67;;;;;;;17.32;100.00;101410.72;5028181;28;20408;-70
2023/08/24 06:11:09;;;;;;;25.55;18.73;;;;;;;17.36;100.00;101388.44;5025187;28;20531;-70
2023/08/24 06:13:34;;;;;;;31.08;20.35;;;;;;;17.43;100.00;101375.84;5009004;28;20034;-69
2023/08/24 06:16:00;;;;;;;31.88;21.90;;;;;;;17.44;100.00;101375.72;5006841;28;20034;-70
2023/08/24 06:18:25;;;;;;;32.70;23.63;;;;;;;17.51;100.00;101376.88;5022822;28;20417;-70
2023/08/24 06:20:51;;;;;;;33.97;22.38;;;;;;;17.54;100.00;101378.50;5028531;28;20041;-70
2023/08/24 06:23:21;;;;;;;32.17;21.15;;;;;;;17.55;100.00;101391.22;5020938;28;20074;-70
2023/08/24 06:25:47;;;;;;;28.98;21.75;;;;;;;17.59;100.00;101398.19;5008522;28;20057;-71
2023/08/24 06:28:13;;;;;;;33.20;24.08;;;;;;;17.64;100.00;101392.25;5014026;28;20026;-70
2023/08/24 06:30:42;;;;;;;32.13;22.95;;;;;;;17.72;100.00;101393.28;5008029;28;20552;-70
2023/08/24 06:33:08;;;;;;;37.60;25.67;;;;;;;17.76;100.00;101394.72;5008119;28;20042;-69
2023/08/24 06:35:34;;;;;;;36.15;25.00;;;;;;;17.79;100.00;101401.84;5008472;28;20367;-69
2023/08/24 06:38:00;;;;;;;30.70;24.23;;;;;;;17.80;100.00;101398.06;5007180;28;20038;-70
2023/08/24 06:40:26;;;;;;;32.53;22.85;;;;;;;17.83;100.00;101398.66;5018283;28;20056;-70
2023/08/24 06:42:51;;;;;;;34.35;23.88;;;;;;;17.88;100.00;101394.59;5008705;28;20038;-70
2023/08/24 06:45:18;;;;;;;32.35;23.17;;;;;;;17.93;100.00;101395.91;5006427;28;20504;-71
2023/08/24 06:47:44;;;;;;;34.05;23.73;;;;;;;18.00;100.00;101399.81;5008254;28;20053;-69
2023/08/24 06:50:10;;;;;;;34.75;23.10;;;;;;;18.04;100.00;101392.97;5007024;28;20112;-70
2023/08/24 06:52:35;;;;;;;36.60;22.63;;;;;;;18.12;100.00;101397.78;5008441;28;20046;-69
2023/08/24 06:55:01;;;;;;;33.63;20.95;;;;;;;18.21;100.00;101394.13;5008406;28;20088;-69
2023/08/24 06:57:26;;;;;;;31.40;23.10;;;;;;;18.24;100.00;101402.13;5003214;28;20446;-69
2023/08/24 06:59:52;;;;;;;30.88;22.88;;;;;;;18.31;100.00;101392.22;5025458;28;20489;-69
2023/08/24 07:02:18;;;;;;;28.77;21.15;;;;;;;18.36;100.00;101383.53;5005379;28;20041;-70
2023/08/24 07:04:44;;;;;;;30.60;22.67;;;;;;;18.44;100.00;101393.81;5006914;28;20505;-69
2023/08/24 07:07:09;;;;;;;32.72;22.95;;;;;;;18.49;100.00;101391.47;5008009;28;20482;-69
2023/08/24 07:09:35;;;;;;;34.22;23.17;;;;;;;18.57;100.00;101386.09;5008150;28;20129;-68
2023/08/24 07:12:03;;;;;;;29.30;21.38;;;;;;;18.67;100.00;101375.03;5008496;28;20065;-69
2023/08/24 07:14:28;;;;;;;31.42;22.27;;;;;;;18.74;99.79;101377.03;5007952;28;20022;-69
2023/08/24 07:16:54;;;;;;;33.40;21.85;;;;;;;18.84;100.00;101375.13;5006814;28;20033;-68
2023/08/24 07:19:20;;;;;;;29.95;20.10;;;;;;;18.94;98.21;101369.56;5024369;28;20045;-69
2023/08/24 07:21:46;;;;;;;27.67;21.75;;;;;;;19.02;99.53;101368.78;5016778;28;20490;-70
2023/08/24 07:24:11;;;;;;;32.38;21.02;;;;;;;19.09;98.19;101361.66;5012262;28;20064;-68
2023/08/24 07:26:36;;;;;;;25.52;19.88;;;;;;;19.19;98.79;101367.97;5020948;28;20496;-69
2023/08/24 07:29:02;;;;;;;32.25;20.40;;;;;;;19.27;98.75;101368.06;5027438;28;20041;-68
2023/08/24 07:31:27;;;;;;;28.10;19.52;;;;;;;19.34;95.93;101368.31;5027083;28;20045;-68
2023/08/24 07:33:52;;;;;;;29.58;19.63;;;;;;;19.45;96.02;101357.06;5027094;28;20112;-68
2023/08/24 07:36:18;;;;;;;23.35;18.15;;;;;;;19.59;95.08;101372.22;5022394;28;20030;-69
2023/08/24 07:38:45;;;;;;;28.02;19.75;;;;;;;19.70;99.18;101357.34;5008492;28;20037;-69
2023/08/24 07:41:11;;;;;;;28.20;19.13;;;;;;;19.83;95.28;101366.09;5026865;28;20056;-68
2023/08/24 07:43:37;;;;;;;26.13;19.25;;;;;;;19.97;93.89;101362.78;5009962;28;20489;-68
2023/08/24 07:46:02;;;;;;;26.25;19.95;;;;;;;20.11;95.34;101364.94;5007052;28;20037;-68
2023/08/24 07:48:28;;;;;;;26.08;18.60;;;;;;;20.26;93.39;101361.59;5005466;28;20402;-68
2023/08/24 07:50:53;;;;;;;24.90;18.70;;;;;;;20.41;92.36;101359.97;5023945;28;20546;-69
2023/08/24 07:53:19;;;;;;;23.52;17.05;;;;;;;20.59;91.39;101368.25;5026147;28;20486;-68
2023/08/24 07:55:45;;;;;;;26.02;17.30;;;;;;;20.79;91.49;101363.34;5027756;28;20036;-68
2023/08/24 07:58:11;;;;;;;23.50;16.45;;;;;;;20.99;87.91;101358.44;5021054;28;20029;-69
2023/08/24 08:00:36;;;;;;;27.08;18.00;;;;;;;21.14;91.13;101357.63;5026496;28;20091;-68
2023/08/24 08:03:01;;;;;;;22.20;16.70;;;;;;;21.32;89.52;101368.63;5012527;28;20037;-68
2023/08/24 08:05:27;;;;;;;19.33;15.50;;;;;;;21.43;87.34;101372.09;5025899;28;20037;-69
2023/08/24 08:07:52;;;;;;;24.08;15.60;;;;;;;21.54;87.04;101375.44;5027289;28;20104;-68
2023/08/24 08:10:20;;;;;;;19.30;14.38;;;;;;;21.64;83.99;101369.72;5025836;28;20116;-69
2023/08/24 08:12:45;;;;;;;20.05;14.18;;;;;;;21.76;83.31;101367.47;5016459;28;20072;-68
2023/08/24 08:15:11;;;;;;;21.02;14.85;;;;;;;21.86;81.22;101363.50;5007727;28;20073;-70
2023/08/24 08:17:36;;;;;;;22.50;14.80;;;;;;;22.03;80.93;101369.06;5009282;28;20030;-68
2023/08/24 08:20:02;;;;;;;21.50;15.60;;;;;;;22.15;81.94;101354.72;5011553;28;20448;-68
2023/08/24 08:22:28;;;;;;;19.85;14.60;;;;;;;22.32;81.81;101358.31;5011438;28;20099;-68
2023/08/24 08:24:54;;;;;;;20.40;14.98;;;;;;;22.46;79.17;101355.88;5011345;28;20041;-68
2023/08/24 08:27:20;;;;;;;19.35;14.32;;;;;;;22.61;80.31;101346.63;5015583;28;20030;-68
2023/08/24 08:29:45;;;;;;;23.92;14.60;;;;;;;22.80;80.77;101342.63;5011555;28;20041;-71
2023/08/24 08:32:12;;;;;;;19.67;13.43;;;;;;;23.00;78.40;101339.44;5010015;28;20485;-67
2023/08/24 08:34:37;;;;;;;20.50;13.70;;;;;;;23.21;78.83;101330.47;5010811;28;20184;-69
2023/08/24 08:37:03;;;;;;;17.77;13.95;;;;;;;23.42;81.15;101327.94;5028702;28;20116;-69
2023/08/24 08:39:28;;;;;;;24.65;15.40;;;;;;;23.55;76.04;101318.97;5030300;28;20040;-67
2023/08/24 08:41:54;;;;;;;26.13;16.48;;;;;;;23.75;79.13;101316.63;5025920;28;20025;-68
2023/08/24 08:44:21;;;;;;;19.33;14.40;;;;;;;23.89;78.18;101310.25;5010430;28;20145;-68
2023/08/24 08:46:49;;;;;;;21.05;13.75;;;;;;;23.99;75.04;101298.88;5009559;28;20038;-69
2023/08/24 08:49:15;;;;;;;20.95;14.55;;;;;;;24.03;73.50;101291.88;5010669;28;20645;-69
2023/08/24 08:51:41;;;;;;;18.58;14.48;;;;;;;24.02;73.65;101291.03;5024907;28;20076;-68
2023/08/24 08:54:06;;;;;;;23.50;13.30;;;;;;;24.06;73.88;101292.38;5030236;28;20049;-68
2023/08/24 08:56:33;;;;;;;22.95;13.65;;;;;;;24.29;75.16;101285.88;5015885;28;20508;-68
2023/08/24 08:59:00;;;;;;;17.95;12.60;;;;;;;24.51;75.05;101270.19;5029419;28;20053;-68
2023/08/24 09:01:27;;;;;;;19.05;13.57;;;;;;;24.64;74.12;101271.22;5029332;28;20065;-68
2023/08/24 09:03:53;;;;;;;20.30;13.75;;;;;;;24.79;72.04;101262.88;5029390;28;20041;-68
2023/08/24 09:06:18;;;;;;;21.70;13.68;;;;;;;24.92;70.76;101254.69;5027422;28;20049;-68
2023/08/24 09:08:45;;;;;;;19.05;13.80;;;;;;;25.01;72.69;101241.53;5029961;28;20029;-69
2023/08/24 09:11:10;;;;;;;20.75;13.88;;;;;;;25.03;71.81;101230.16;5011881;28;20037;-69
2023/08/24 09:13:35;;;;;;;20.35;12.90;;;;;;;25.17;71.39;101220.94;5012931;28;20092;-68
2023/08/24 09:16:07;;;;;;;23.13;13.65;;;;;;;25.34;70.59;101227.97;5007851;28;20141;-68
2023/08/24 09:18:37;;;;;;;17.77;13.60;;;;;;;25.38;68.98;101217.31;5008182;28;20129;-69
2023/08/24 09:21:09;;;;;;;21.58;16.02;;;;;;;25.37;69.78;101212.81;5010079;28;20388;-68
2023/08/24 09:23:34;;;;;;;23.35;16.92;;;;;;;25.40;69.43;101204.03;5010124;28;20594;-69
2023/08/24 09:26:00;;;;;;;26.13;16.77;;;;;;;25.50;69.60;101206.47;5010397;28;20030;-68
2023/08/24 09:28:25;;;;;;;20.40;15.98;;;;;;;25.64;70.55;101198.03;5009010;28;20052;-69
2023/08/24 09:30:57;;;;;;;25.02;15.65;;;;;;;25.70;69.85;101199.16;5009175;28;20021;-69
2023/08/24 09:33:24;;;;;;;22.95;16.63;;;;;;;25.78;69.02;101196.25;5009270;28;20033;-68
2023/08/24 09:35:57;;;;;;;21.08;16.17;;;;;;;25.83;69.31;101213.22;5009525;28;20034;-69
2023/08/24 09:38:23;;;;;;;17.70;12.73;;;;;;;26.06;71.55;101218.53;5009793;28;20034;-69
2023/08/24 09:40:53;;;;;;;22.60;15.43;;;;;;;26.19;69.36;101226.16;5026650;28;20025;-67
2023/08/24 09:43:20;;;;;;;21.98;16.10;;;;;;;26.29;68.43;101248.09;5012795;28;20041;-69
2023/08/24 09:45:56;;;;;;;22.17;15.95;;;;;;;26.38;69.21;101261.66;5009288;28;20030;-68
2023/08/24 09:48:22;;;;;;;23.90;15.77;;;;;;;26.37;64.96;101262.75;5008781;28;20389;-68
2023/08/24 09:50:50;;;;;;;18.77;14.50;;;;;;;26.41;66.71;101250.13;5009611;28;20045;-70
2023/08/24 09:53:20;;;;;;;22.15;14.57;;;;;;;26.45;66.20;101245.88;5012501;28;20496;-70
2023/08/24 09:55:52;;;;;;;17.95;13.95;;;;;;;26.50;68.35;101250.84;5029152;28;20052;-69
2023/08/24 09:58:19;;;;;;;18.23;13.60;;;;;;;26.60;66.53;101250.47;5022886;28;20388;-68
2023/08/24 10:00:46;;;;;;;20.85;14.05;;;;;;;26.66;66.03;101258.00;5027521;28;20087;-67
2023/08/24 10:03:16;;;;;;;17.35;13.73;;;;;;;26.64;67.87;101263.81;5044227;28;20038;-69
2023/08/24 10:05:43;;;;;;;17.77;14.25;;;;;;;26.67;68.38;101268.09;5027245;28;20041;-69
2023/08/24 10:08:09;;;;;;;20.95;12.75;;;;;;;26.70;68.62;101267.69;5028937;28;20037;-69
2023/08/24 10:10:37;;;;;;;19.75;12.50;;;;;;;26.69;67.25;101266.84;5027547;28;20026;-68
2023/08/24 10:13:14;;;;;;;16.38;12.43;;;;;;;26.66;68.81;101275.59;5025808;28;20037;-68
2023/08/24 10:15:46;;;;;;;17.23;12.70;;;;;;;26.60;72.08;101276.44;5027911;28;20041;-69
2023/08/24 10:18:13;;;;;;;18.98;12.75;;;;;;;26.50;69.28;101278.75;5028620;28;20112;-68
2023/08/24 10:20:39;;;;;;;15.45;11.88;;;;;;;26.47;71.18;101281.94;5027573;28;20215;-67
2023/08/24 10:23:04;;;;;;;12.95;11.40;;;;;;;26.36;72.35;101269.41;5028643;28;20037;-68
2023/08/24 10:25:30;;;;;;;15.30;12.23;;;;;;;26.28;73.46;101269.56;5028389;28;20038;-67
2023/08/24 10:27:57;;;;;;;17.55;12.93;;;;;;;26.18;71.90;101269.06;5011920;28;20049;-68
2023/08/24 10:30:23;;;;;;;20.55;12.07;;;;;;;26.07;73.67;101262.13;5008117;28;20030;-67
2023/08/24 10:32:53;;;;;;;19.05;11.77;;;;;;;26.01;74.58;101260.13;5008145;28;20034;-68
2023/08/24 10:35:20;;;;;;;14.55;10.95;;;;;;;25.95;75.02;101272.09;5008990;28;20034;-68
2023/08/24 10:37:46;;;;;;;16.98;10.80;;;;;;;25.82;76.00;101275.63;5008798;28;20497;-70
2023/08/24 10:40:13;;;;;;;16.27;11.65;;;;;;;25.69;77.17;101289.41;5020950;28;20025;-69
2023/08/24 10:42:46;;;;;;;19.15;11.55;;;;;;;25.58;76.79;101293.59;5012774;28;20041;-68
2023/08/24 10:45:17;;;;;;;15.93;11.55;;;;;;;25.51;77.11;101289.88;5008718;28;20046;-68
2023/08/24 10:47:46;;;;;;;16.25;11.70;;;;;;;25.48;76.59;101293.06;5008089;28;20490;-69
2023/08/24 10:50:12;;;;;;;19.25;11.48;;;;;;;25.37;79.40;101291.66;5008791;28;20482;-68
2023/08/24 10:52:39;;;;;;;16.67;11.27;;;;;;;25.34;79.68;101286.47;5022603;28;20048;-68
2023/08/24 10:55:21;;;;;;;16.13;11.73;;;;;;;25.33;80.22;101279.19;5028070;28;20485;-68
2023/08/24 10:57:55;;;;;;;17.33;12.38;;;;;;;25.34;81.04;101269.78;5012957;28;20041;-69
2023/08/24 11:00:22;;;;;;;19.90;11.32;;;;;;;25.38;81.37;101264.66;5007255;28;20057;-68
2023/08/24 11:02:49;;;;;;;36.28;12.88;;;;;;;25.40;81.74;101268.97;5006327;28;20080;-68
2023/08/24 11:05:18;;;;;;;16.13;11.60;;;;;;;25.39;76.41;101260.81;5008687;28;20076;-69
2023/08/24 11:07:50;;;;;;;17.77;12.20;;;;;;;25.36;77.09;101264.84;5008741;28;20041;-68